createdAt,value
2022-08-04T00:00:56.058Z,19.56
2022-08-04T00:03:29.082Z,19.57
2022-08-04T00:06:01.660Z,19.49
2022-08-04T00:08:36.289Z,19.45
2022-08-04T00:11:04.930Z,19.44
2022-08-04T00:13:59.715Z,19.44
2022-08-04T00:16:31.302Z,19.46
2022-08-04T00:19:03.740Z,19.53
2022-08-04T00:21:37.682Z,19.54
2022-08-04T00:24:12.246Z,19.55
2022-08-04T00:26:41.638Z,19.55
2022-08-04T00:29:11.610Z,19.49
2022-08-04T00:31:56.403Z,19.46
2022-08-04T00:34:27.749Z,19.43
2022-08-04T00:36:57.077Z,19.42
2022-08-04T00:39:26.401Z,19.41
2022-08-04T00:42:05.651Z,19.44
2022-08-04T00:44:40.980Z,19.41
2022-08-04T00:47:20.844Z,19.38
2022-08-04T00:49:59.423Z,19.32
2022-08-04T00:52:34.541Z,19.32
2022-08-04T00:55:12.960Z,19.29
2022-08-04T00:57:53.216Z,19.22
2022-08-04T01:00:23.960Z,19.25
2022-08-04T01:03:02.062Z,19.26
2022-08-04T01:05:37.946Z,19.21
2022-08-04T01:08:17.233Z,19.17
2022-08-04T01:10:56.251Z,19.12
2022-08-04T01:13:31.320Z,19.14
2022-08-04T01:16:05.423Z,19.16
2022-08-04T01:18:37.489Z,19.14
2022-08-04T01:21:19.130Z,19.15
2022-08-04T01:23:58.957Z,19.12
2022-08-04T01:26:42.651Z,19.09
2022-08-04T01:29:24.381Z,19.06
2022-08-04T01:32:03.705Z,18.89
2022-08-04T01:34:36.098Z,18.69
2022-08-04T01:37:13.728Z,18.65
2022-08-04T01:39:46.258Z,18.69
2022-08-04T01:42:31.619Z,18.70
2022-08-04T01:45:04.898Z,18.70
2022-08-04T01:47:35.733Z,18.69
2022-08-04T01:50:09.139Z,18.68
2022-08-04T01:52:38.673Z,18.68
2022-08-04T01:55:10.049Z,18.68
2022-08-04T01:57:39.614Z,18.70
2022-08-04T02:00:10.577Z,18.70
2022-08-04T02:02:40.437Z,18.71
2022-08-04T02:05:11.331Z,18.73
2022-08-04T02:07:49.143Z,18.72
2022-08-04T02:10:23.085Z,18.70
2022-08-04T02:12:57.660Z,18.72
2022-08-04T02:15:31.849Z,18.68
2022-08-04T02:18:05.217Z,18.69
2022-08-04T02:20:37.652Z,18.69
2022-08-04T02:23:10.409Z,18.68
2022-08-04T02:25:41.798Z,18.64
2022-08-04T02:28:14.298Z,18.60
2022-08-04T02:30:48.558Z,18.58
2022-08-04T02:33:20.749Z,18.58
2022-08-04T02:35:52.770Z,18.61
2022-08-04T02:38:26.061Z,18.59
2022-08-04T02:40:56.678Z,18.60
2022-08-04T02:43:51.668Z,18.53
2022-08-04T02:46:21.044Z,18.49
2022-08-04T02:48:51.392Z,18.37
2022-08-04T02:51:23.505Z,18.20
2022-08-04T02:53:55.237Z,18.12
2022-08-04T02:56:24.315Z,18.16
2022-08-04T02:58:54.643Z,18.22
2022-08-04T03:01:25.224Z,18.22
2022-08-04T03:04:03.736Z,18.25
2022-08-04T03:06:48.359Z,18.30
2022-08-04T03:09:27.823Z,18.26
2022-08-04T03:12:17.911Z,18.23
2022-08-04T03:15:00.699Z,18.21
2022-08-04T03:17:53.027Z,18.15
2022-08-04T03:20:31.261Z,18.13
2022-08-04T03:23:14.310Z,18.06
2022-08-04T03:25:57.249Z,17.96
2022-08-04T03:28:36.958Z,17.74
2022-08-04T03:31:12.508Z,17.57
2022-08-04T03:33:56.021Z,17.52
2022-08-04T03:36:36.302Z,17.36
2022-08-04T03:39:27.893Z,17.20
2022-08-04T03:42:11.164Z,17.15
2022-08-04T03:44:54.271Z,17.19
2022-08-04T03:47:30.331Z,17.28
2022-08-04T03:50:14.529Z,17.42
2022-08-04T03:53:07.610Z,17.55
2022-08-04T03:55:56.862Z,17.65
2022-08-04T03:58:36.047Z,17.68
2022-08-04T04:01:10.859Z,17.77
2022-08-04T04:03:52.790Z,17.87
2022-08-04T04:06:32.020Z,17.82
2022-08-04T04:09:20.448Z,17.83
2022-08-04T04:12:07.679Z,18.00
2022-08-04T04:14:45.901Z,18.09
2022-08-04T04:17:25.319Z,18.16
2022-08-04T04:20:10.292Z,18.28
2022-08-04T04:22:48.819Z,18.32
2022-08-04T04:25:26.229Z,18.45
2022-08-04T04:28:44.556Z,18.55
2022-08-04T04:31:03.912Z,18.64
2022-08-04T04:33:38.239Z,18.74
2022-08-04T04:36:12.830Z,18.74
2022-08-04T04:38:59.479Z,18.74
2022-08-04T04:41:38.756Z,18.87
2022-08-04T04:44:28.732Z,19.05
2022-08-04T04:47:04.991Z,19.17
2022-08-04T04:49:39.152Z,19.26
2022-08-04T04:52:11.353Z,19.33
2022-08-04T04:54:41.330Z,19.45
2022-08-04T04:57:13.394Z,19.53
2022-08-04T04:59:48.711Z,19.64
2022-08-04T05:02:34.964Z,19.75
2022-08-04T05:05:14.090Z,19.88
2022-08-04T05:07:53.613Z,20.03
2022-08-04T05:10:33.099Z,20.19
2022-08-04T05:14:35.657Z,20.29
2022-08-04T05:16:01.709Z,20.41
2022-08-04T05:18:32.957Z,20.52
2022-08-04T05:21:10.182Z,20.65
2022-08-04T05:23:43.222Z,20.79
2022-08-04T05:26:14.161Z,20.95
2022-08-04T05:28:44.831Z,21.08
2022-08-04T05:31:14.147Z,21.22
2022-08-04T05:33:44.878Z,21.35
2022-08-04T05:36:23.495Z,21.49
2022-08-04T05:39:03.807Z,21.61
2022-08-04T05:41:45.555Z,21.68
2022-08-04T05:44:17.079Z,21.79
2022-08-04T05:46:53.927Z,21.92
2022-08-04T05:49:24.393Z,22.04
2022-08-04T05:51:53.431Z,22.13
2022-08-04T05:54:22.961Z,22.24
2022-08-04T05:56:52.999Z,22.34
2022-08-04T05:59:24.163Z,22.48
2022-08-04T06:01:56.723Z,22.58
2022-08-04T06:04:28.431Z,22.68
2022-08-04T06:06:56.812Z,22.79
2022-08-04T06:09:25.517Z,22.90
2022-08-04T06:12:03.515Z,23.05
2022-08-04T06:14:37.221Z,23.14
2022-08-04T06:19:57.053Z,23.23
2022-08-04T06:20:18.167Z,23.36
2022-08-04T06:22:47.392Z,23.48
2022-08-04T06:25:19.324Z,23.60
2022-08-04T06:27:50.273Z,23.77
2022-08-04T06:30:20.086Z,23.89
2022-08-04T06:33:03.577Z,24.02
2022-08-04T06:35:33.508Z,24.19
2022-08-04T06:38:03.198Z,24.28
2022-08-04T06:40:34.056Z,24.32
2022-08-04T06:43:06.078Z,24.41
2022-08-04T06:45:35.671Z,24.55
2022-08-04T06:48:05.155Z,24.73
2022-08-04T06:51:31.390Z,24.83
2022-08-04T06:53:22.772Z,24.92
2022-08-04T06:55:52.002Z,24.94
2022-08-04T06:58:22.673Z,25.03
2022-08-04T07:00:52.593Z,25.14
2022-08-04T07:03:22.105Z,25.30
2022-08-04T07:05:50.848Z,25.47
2022-08-04T07:08:20.559Z,25.54
2022-08-04T07:10:50.051Z,25.72
2022-08-04T07:13:20.363Z,25.82
2022-08-04T07:15:50.540Z,25.88
2022-08-04T07:18:19.209Z,25.96
2022-08-04T07:20:48.243Z,26.10
2022-08-04T07:23:21.572Z,26.20
2022-08-04T07:25:59.130Z,26.35
2022-08-04T07:28:33.642Z,26.42
2022-08-04T07:31:03.872Z,26.50
2022-08-04T07:33:32.630Z,26.68
2022-08-04T07:36:09.203Z,26.79
2022-08-04T07:38:48.076Z,26.88
2022-08-04T07:41:38.291Z,26.93
2022-08-04T07:44:08.546Z,26.98
2022-08-04T07:46:38.430Z,27.18
2022-08-04T07:49:08.881Z,27.17
2022-08-04T07:51:37.689Z,27.25
2022-08-04T07:54:06.333Z,27.53
2022-08-04T07:56:35.251Z,27.73
2022-08-04T07:59:03.959Z,27.79
2022-08-04T08:01:32.570Z,27.88
2022-08-04T08:04:02.963Z,28.03
2022-08-04T08:06:34.909Z,28.00
2022-08-04T08:09:13.446Z,28.22
2022-08-04T08:12:38.720Z,28.46
2022-08-04T08:14:32.080Z,28.65
2022-08-04T08:17:01.672Z,28.81
2022-08-04T08:19:31.843Z,28.88
2022-08-04T08:22:01.111Z,28.80
2022-08-04T08:24:30.474Z,28.73
2022-08-04T08:26:59.010Z,28.56
2022-08-04T08:29:27.803Z,28.49
2022-08-04T08:32:01.518Z,28.52
2022-08-04T08:34:35.572Z,28.65
2022-08-04T08:37:06.639Z,28.70
2022-08-04T08:39:37.816Z,28.84
2022-08-04T08:42:21.119Z,28.88
2022-08-04T08:45:10.814Z,28.94
2022-08-04T08:48:05.113Z,29.08
2022-08-04T08:50:56.400Z,29.15
2022-08-04T08:53:32.412Z,29.26
2022-08-04T08:56:13.308Z,29.26
2022-08-04T08:58:48.512Z,29.29
2022-08-04T09:01:27.773Z,29.55
2022-08-04T09:04:22.860Z,29.54
2022-08-04T09:07:04.349Z,29.60
2022-08-04T09:09:43.543Z,29.70
2022-08-04T09:12:16.321Z,29.67
2022-08-04T09:14:54.522Z,29.59
2022-08-04T09:17:28.807Z,29.52
2022-08-04T09:20:00.699Z,29.63
2022-08-04T09:22:37.270Z,29.64
2022-08-04T09:25:10.130Z,29.81
2022-08-04T09:27:41.955Z,29.95
2022-08-04T09:30:12.032Z,29.97
2022-08-04T09:32:45.700Z,29.96
2022-08-04T09:35:19.647Z,30.08
2022-08-04T09:37:56.330Z,30.22
2022-08-04T09:40:35.649Z,30.27
2022-08-04T09:43:57.199Z,30.23
2022-08-04T09:46:22.674Z,30.40
2022-08-04T09:48:55.352Z,30.55
2022-08-04T09:51:27.100Z,30.72
2022-08-04T09:54:31.036Z,30.91
2022-08-04T09:57:09.302Z,30.92
2022-08-04T09:59:42.902Z,30.96
2022-08-04T10:02:13.063Z,30.99
2022-08-04T10:04:44.266Z,30.92
2022-08-04T10:07:31.412Z,30.96
2022-08-04T10:10:12.372Z,31.15
2022-08-04T10:12:50.151Z,31.14
2022-08-04T10:15:21.217Z,31.12
2022-08-04T10:18:01.732Z,31.22
2022-08-04T10:20:48.188Z,31.20
2022-08-04T10:23:25.099Z,31.21
2022-08-04T10:26:07.017Z,31.25
2022-08-04T10:28:43.313Z,31.37
2022-08-04T10:31:15.083Z,31.42
2022-08-04T10:33:45.434Z,31.41
2022-08-04T10:36:19.011Z,31.70
2022-08-04T10:38:51.499Z,31.77
2022-08-04T10:41:25.832Z,31.72
2022-08-04T10:44:02.634Z,31.87
2022-08-04T10:46:34.270Z,31.91
2022-08-04T10:49:05.683Z,31.80
2022-08-04T10:51:58.946Z,31.92
2022-08-04T10:54:28.701Z,32.22
2022-08-04T10:57:00.655Z,32.28
2022-08-04T10:59:34.735Z,32.18
2022-08-04T11:02:16.706Z,32.07
2022-08-04T11:04:48.301Z,32.09
2022-08-04T11:07:18.419Z,32.09
2022-08-04T11:09:47.209Z,32.11
2022-08-04T11:12:18.032Z,32.15
2022-08-04T11:14:51.755Z,32.20
2022-08-04T11:17:22.698Z,32.24
2022-08-04T11:20:18.090Z,32.16
2022-08-04T11:22:51.508Z,32.28
2022-08-04T11:25:22.079Z,32.37
2022-08-04T11:27:56.866Z,32.47
2022-08-04T11:30:30.587Z,32.69
2022-08-04T11:33:03.546Z,32.83
2022-08-04T11:35:36.168Z,33.09
2022-08-04T11:38:09.539Z,33.07
2022-08-04T11:40:41.827Z,33.04
2022-08-04T11:44:01.194Z,32.85
2022-08-04T11:46:22.486Z,32.80
2022-08-04T11:48:54.876Z,32.94
2022-08-04T11:51:24.547Z,33.09
2022-08-04T11:53:53.077Z,33.17
2022-08-04T11:56:36.722Z,33.16
2022-08-04T11:59:09.151Z,33.09
2022-08-04T12:02:01.531Z,33.08
2022-08-04T12:04:36.476Z,33.13
2022-08-04T12:10:00.598Z,33.40
2022-08-04T12:12:33.980Z,33.31
2022-08-04T12:15:10.771Z,33.36
2022-08-04T12:17:53.011Z,33.39
2022-08-04T12:20:38.069Z,33.26
2022-08-04T12:23:16.279Z,33.17
2022-08-04T12:25:48.067Z,33.35
2022-08-04T12:28:20.055Z,33.47
2022-08-04T12:31:00.484Z,33.55
2022-08-04T12:34:03.459Z,33.58
2022-08-04T12:36:29.572Z,33.62
2022-08-04T12:39:01.087Z,33.39
2022-08-04T12:41:36.004Z,33.43
2022-08-04T12:44:36.420Z,33.48
2022-08-04T12:47:27.887Z,33.68
2022-08-04T12:50:00.071Z,33.61
2022-08-04T12:55:19.460Z,33.49
2022-08-04T12:57:49.002Z,33.38
2022-08-04T13:00:29.546Z,33.43
2022-08-04T13:03:02.588Z,33.54
2022-08-04T13:05:33.010Z,33.52
2022-08-04T13:08:02.838Z,33.38
2022-08-04T13:10:31.820Z,33.30
2022-08-04T13:13:03.442Z,33.29
2022-08-04T13:15:47.334Z,33.30
2022-08-04T13:18:27.384Z,33.15
2022-08-04T13:21:20.414Z,33.19
2022-08-04T13:24:10.163Z,33.13
2022-08-04T13:26:54.739Z,33.16
2022-08-04T13:30:00.644Z,33.09
2022-08-04T13:32:16.694Z,33.16
2022-08-04T13:34:48.900Z,33.18
2022-08-04T13:37:25.011Z,33.20
2022-08-04T13:39:55.851Z,33.15
2022-08-04T13:42:27.484Z,33.18
2022-08-04T13:44:57.418Z,33.15
2022-08-04T13:47:29.613Z,33.16
2022-08-04T13:50:11.185Z,33.11
2022-08-04T13:52:42.559Z,33.05
2022-08-04T13:55:19.951Z,33.03
2022-08-04T13:57:51.601Z,32.97
2022-08-04T14:00:29.984Z,32.96
2022-08-04T14:03:01.680Z,33.01
2022-08-04T14:05:35.368Z,33.00
2022-08-04T14:08:25.435Z,32.93
2022-08-04T14:10:57.936Z,32.87
2022-08-04T14:13:41.217Z,32.75
2022-08-04T14:16:17.718Z,32.81
2022-08-04T14:18:46.359Z,32.82
2022-08-04T14:21:15.514Z,32.79
2022-08-04T14:23:52.566Z,32.85
2022-08-04T14:26:33.348Z,32.82
2022-08-04T14:29:26.788Z,32.85
2022-08-04T14:32:10.543Z,32.83
2022-08-04T14:34:44.975Z,32.83
2022-08-04T14:37:18.480Z,32.84
2022-08-04T14:40:18.639Z,32.77
2022-08-04T14:42:53.933Z,32.64
2022-08-04T14:45:31.997Z,32.64
2022-08-04T14:48:01.701Z,32.69
2022-08-04T14:50:38.790Z,32.68
2022-08-04T14:53:08.655Z,32.73
2022-08-04T14:55:39.808Z,32.72
2022-08-04T14:58:33.799Z,32.66
2022-08-04T15:00:58.838Z,32.49
2022-08-04T15:03:27.803Z,32.44
2022-08-04T15:06:02.907Z,32.44
2022-08-04T15:08:35.606Z,32.42
2022-08-04T15:11:05.591Z,32.44
2022-08-04T15:13:34.237Z,32.47
2022-08-04T15:16:06.975Z,32.56
2022-08-04T15:18:38.767Z,32.54
2022-08-04T15:21:09.040Z,32.53
2022-08-04T15:23:39.307Z,32.44
2022-08-04T15:26:15.452Z,32.43
2022-08-04T15:28:51.938Z,32.37
2022-08-04T15:32:03.979Z,32.40
2022-08-04T15:34:12.035Z,32.40
2022-08-04T15:36:44.802Z,32.37
2022-08-04T15:39:33.157Z,32.37
2022-08-04T15:42:23.161Z,32.35
2022-08-04T15:45:03.156Z,32.31
2022-08-04T15:47:32.359Z,32.33
2022-08-04T15:50:04.871Z,32.34
2022-08-04T15:53:12.446Z,32.36
2022-08-04T15:55:43.894Z,32.29
2022-08-04T15:58:14.856Z,32.27
2022-08-04T16:00:54.430Z,32.20
2022-08-04T16:03:58.390Z,32.16
2022-08-04T16:06:33.528Z,32.12
2022-08-04T16:09:02.979Z,32.12
2022-08-04T16:11:41.501Z,32.09
2022-08-04T16:14:11.843Z,32.04
2022-08-04T16:16:49.554Z,32.02
2022-08-04T16:19:24.569Z,31.99
2022-08-04T16:22:05.583Z,31.88
2022-08-04T16:24:37.485Z,31.87
2022-08-04T16:27:07.175Z,31.85
2022-08-04T16:29:41.803Z,31.84
2022-08-04T16:32:19.075Z,31.76
2022-08-04T16:34:55.103Z,31.71
2022-08-04T16:37:25.984Z,31.67
2022-08-04T16:40:09.554Z,31.66
2022-08-04T16:42:38.674Z,31.63
2022-08-04T16:45:14.980Z,31.57
2022-08-04T16:47:55.473Z,31.54
2022-08-04T16:50:26.194Z,31.43
2022-08-04T16:52:55.626Z,31.36
2022-08-04T16:55:25.409Z,31.29
2022-08-04T16:57:55.031Z,31.23
2022-08-04T17:00:31.985Z,31.20
2022-08-04T17:03:04.069Z,31.18
2022-08-04T17:05:39.507Z,31.16
2022-08-04T17:10:58.638Z,31.01
2022-08-04T17:14:03.348Z,30.95
2022-08-04T17:16:23.086Z,30.89
2022-08-04T17:18:52.763Z,30.85
2022-08-04T17:21:23.256Z,30.79
2022-08-04T17:24:13.145Z,30.75
2022-08-04T17:26:45.471Z,30.70
2022-08-04T17:29:44.622Z,30.67
2022-08-04T17:32:22.097Z,30.63
2022-08-04T17:34:51.857Z,30.56
2022-08-04T17:37:40.706Z,30.50
2022-08-04T17:40:13.513Z,30.45
2022-08-04T17:42:45.299Z,30.35
2022-08-04T17:48:09.255Z,30.20
2022-08-04T17:50:43.592Z,30.14
2022-08-04T17:53:13.374Z,30.03
2022-08-04T17:55:43.942Z,29.95
2022-08-04T17:58:20.913Z,29.83
2022-08-04T18:01:23.765Z,29.76
2022-08-04T18:03:52.950Z,29.69
2022-08-04T18:06:25.688Z,29.59
2022-08-04T18:08:59.062Z,29.48
2022-08-04T18:11:41.715Z,29.41
2022-08-04T18:14:11.178Z,29.31
2022-08-04T18:16:46.583Z,29.22
2022-08-04T18:22:08.166Z,29.02
2022-08-04T18:24:55.684Z,28.93
2022-08-04T18:30:53.148Z,28.68
2022-08-04T18:33:39.749Z,28.51
2022-08-04T18:36:35.479Z,28.37
2022-08-04T18:38:54.583Z,28.16
2022-08-04T18:41:24.998Z,27.87
2022-08-04T18:43:56.710Z,27.72
2022-08-04T18:50:59.727Z,27.47
2022-08-04T18:52:05.408Z,27.27
2022-08-04T18:54:42.006Z,27.12
2022-08-04T18:57:32.436Z,26.94
2022-08-04T19:00:00.414Z,26.91
2022-08-04T19:02:29.831Z,26.84
2022-08-04T19:04:58.031Z,26.83
2022-08-04T19:07:30.583Z,26.75
2022-08-04T19:09:59.692Z,26.52
2022-08-04T19:12:28.923Z,26.41
2022-08-04T19:15:07.897Z,26.32
2022-08-04T19:17:52.831Z,26.29
2022-08-04T19:20:25.989Z,26.22
2022-08-04T19:24:10.315Z,26.25
2022-08-04T19:25:58.913Z,26.15
2022-08-04T19:28:34.389Z,26.07
2022-08-04T19:31:04.515Z,26.05
2022-08-04T19:33:58.466Z,26.09
2022-08-04T19:36:27.811Z,26.10
2022-08-04T19:38:59.534Z,25.94
2022-08-04T19:41:31.170Z,25.69
2022-08-04T19:44:01.011Z,25.63
2022-08-04T19:46:29.560Z,25.64
2022-08-04T19:49:00.395Z,25.64
2022-08-04T19:51:30.039Z,25.61
2022-08-04T19:54:03.796Z,25.43
2022-08-04T19:59:25.602Z,25.09
2022-08-04T20:02:01.133Z,24.93
2022-08-04T20:04:31.245Z,24.86
2022-08-04T20:07:01.243Z,24.81
2022-08-04T20:09:37.364Z,24.70
2022-08-04T20:12:06.994Z,24.47
2022-08-04T20:14:39.572Z,24.27
2022-08-04T20:17:09.991Z,24.14
2022-08-04T20:19:39.357Z,24.15
2022-08-04T20:22:08.637Z,24.24
2022-08-04T20:25:18.327Z,24.29
2022-08-04T20:28:00.101Z,24.31
2022-08-04T20:30:30.293Z,24.34
2022-08-04T20:33:00.396Z,24.37
2022-08-04T20:35:29.213Z,24.36
2022-08-04T20:38:00.879Z,24.36
2022-08-04T20:40:32.046Z,24.33
2022-08-04T20:43:01.310Z,24.25
2022-08-04T20:45:57.159Z,24.22
2022-08-04T20:48:19.356Z,24.17
2022-08-04T20:50:54.484Z,24.13
2022-08-04T20:53:46.645Z,24.04
2022-08-04T20:56:19.184Z,24.00
2022-08-04T20:59:00.450Z,23.96
2022-08-04T21:01:30.000Z,23.93
2022-08-04T21:04:09.170Z,23.86
2022-08-04T21:06:37.707Z,23.86
2022-08-04T21:09:09.549Z,23.73
2022-08-04T21:11:47.340Z,23.71
2022-08-04T21:14:19.602Z,23.71
2022-08-04T21:16:54.032Z,23.70
2022-08-04T21:19:24.559Z,23.69
2022-08-04T21:21:55.768Z,23.67
2022-08-04T21:24:26.389Z,23.61
2022-08-04T21:26:57.733Z,23.60
2022-08-04T21:32:15.918Z,23.36
2022-08-04T21:34:44.555Z,23.36
2022-08-04T21:37:23.204Z,23.32
2022-08-04T21:40:15.248Z,23.32
2022-08-04T21:42:50.119Z,23.29
2022-08-04T21:45:22.321Z,23.28
2022-08-04T21:47:51.228Z,23.24
2022-08-04T21:50:20.428Z,23.23
2022-08-04T21:52:49.317Z,23.18
2022-08-04T21:55:19.348Z,23.17
2022-08-04T21:57:51.730Z,23.10
2022-08-04T22:00:21.419Z,23.04
2022-08-04T22:05:39.482Z,23.04
2022-08-04T22:08:08.274Z,23.03
2022-08-04T22:10:49.497Z,22.93
2022-08-04T22:13:22.657Z,22.88
2022-08-04T22:16:03.997Z,22.85
2022-08-04T22:18:36.828Z,22.77
2022-08-04T22:21:12.028Z,22.78
2022-08-04T22:23:45.417Z,22.72
2022-08-04T22:26:20.101Z,22.59
2022-08-04T22:28:57.477Z,22.40
2022-08-04T22:31:26.930Z,22.31
2022-08-04T22:34:15.546Z,22.15
2022-08-04T22:36:48.448Z,22.14
2022-08-04T22:39:16.833Z,22.19
2022-08-04T22:42:03.079Z,22.21
2022-08-04T22:44:35.033Z,22.22
2022-08-04T22:47:09.356Z,22.22
2022-08-04T22:49:56.740Z,22.25
2022-08-04T22:52:49.667Z,22.23
2022-08-04T22:55:25.486Z,22.20
2022-08-04T22:58:14.227Z,22.19
2022-08-04T23:00:44.709Z,22.19
2022-08-04T23:03:37.457Z,22.14
2022-08-04T23:06:11.048Z,22.11
2022-08-04T23:08:46.455Z,22.10
2022-08-04T23:11:15.937Z,22.12
2022-08-04T23:13:44.337Z,22.13
2022-08-04T23:16:14.246Z,22.12
2022-08-04T23:18:48.328Z,22.13
2022-08-04T23:21:24.300Z,22.09
2022-08-04T23:24:00.762Z,22.09
2022-08-04T23:26:31.920Z,22.08
2022-08-04T23:29:03.586Z,22.07
2022-08-04T23:31:40.757Z,21.93
2022-08-04T23:34:12.205Z,21.88
2022-08-04T23:36:42.441Z,21.94
2022-08-04T23:39:11.320Z,21.94
2022-08-04T23:41:50.932Z,21.89
2022-08-04T23:44:26.767Z,21.81
2022-08-04T23:47:01.246Z,21.81
2022-08-04T23:49:43.224Z,21.81
2022-08-04T23:52:23.271Z,21.83
2022-08-04T23:54:58.232Z,21.79
2022-08-04T23:57:31.065Z,21.78
